createdAt,value
2022-11-17T00:03:19.316Z,1.4
2022-11-17T00:09:03.434Z,1.6
2022-11-17T00:14:46.769Z,2.8
2022-11-17T00:20:30.022Z,1.6
2022-11-17T00:26:12.886Z,1.7
2022-11-17T00:31:55.941Z,1.6
2022-11-17T00:37:40.618Z,1.9
2022-11-17T00:43:23.484Z,3
2022-11-17T00:49:07.009Z,2.1
2022-11-17T00:54:51.015Z,1.9
2022-11-17T01:00:33.975Z,2.9
2022-11-17T01:06:17.534Z,3
2022-11-17T01:12:00.549Z,3.6
2022-11-17T01:17:43.645Z,2.7
2022-11-17T01:23:26.582Z,2.6
2022-11-17T01:29:10.084Z,1.7
2022-11-17T01:34:53.249Z,4
2022-11-17T01:40:36.328Z,3.5
2022-11-17T01:46:22.465Z,2.6
2022-11-17T01:52:08.597Z,3.4
2022-11-17T01:57:53.668Z,2.1
2022-11-17T02:03:38.940Z,2.5
2022-11-17T02:09:23.455Z,2.1
2022-11-17T02:15:07.108Z,2.3
2022-11-17T02:20:57.528Z,3.6
2022-11-17T02:26:54.096Z,2.6
2022-11-17T02:32:42.526Z,3.3
2022-11-17T02:38:30.646Z,2.4
2022-11-17T02:44:16.049Z,4.4
2022-11-17T02:50:02.120Z,2.9
2022-11-17T02:55:49.706Z,4.2
2022-11-17T03:01:44.360Z,4.8
2022-11-17T03:07:36.182Z,5.6
2022-11-17T03:13:21.249Z,3.6
2022-11-17T03:19:09.002Z,5.4
2022-11-17T03:24:53.484Z,3.6
2022-11-17T03:30:40.292Z,4.7
2022-11-17T03:36:25.597Z,4.7
2022-11-17T03:42:10.636Z,5.8
2022-11-17T03:47:56.107Z,2.7
2022-11-17T03:53:40.042Z,4.4
2022-11-17T03:59:27.080Z,5.3
2022-11-17T04:05:10.450Z,5
2022-11-17T04:10:54.592Z,5
2022-11-17T04:16:37.336Z,5.2
2022-11-17T04:22:20.125Z,4.9
2022-11-17T04:28:03.093Z,4.6
2022-11-17T04:33:46.876Z,3.8
2022-11-17T04:39:29.713Z,5.3
2022-11-17T04:45:13.049Z,2.6
2022-11-17T04:50:59.575Z,3.6
2022-11-17T04:56:42.720Z,4.3
2022-11-17T05:02:25.579Z,5.5
2022-11-17T05:08:08.293Z,3.2
2022-11-17T05:13:51.149Z,3.1
2022-11-17T05:19:35.245Z,3.5
2022-11-17T05:25:18.197Z,4.5
2022-11-17T05:31:01.298Z,2.7
2022-11-17T05:36:44.445Z,2.9
2022-11-17T05:42:27.257Z,2.8
2022-11-17T05:48:10.352Z,2.9
2022-11-17T05:53:53.471Z,2.8
2022-11-17T05:59:39.130Z,1.7
2022-11-17T06:05:23.329Z,3.8
2022-11-17T06:11:06.431Z,1.9
2022-11-17T06:16:50.610Z,3.7
2022-11-17T06:22:34.021Z,2.9
2022-11-17T06:28:19.340Z,2
2022-11-17T06:34:02.409Z,2.2
2022-11-17T06:39:45.424Z,3
2022-11-17T06:45:29.303Z,1.5
2022-11-17T06:51:12.584Z,3.4
2022-11-17T06:56:55.807Z,2.6
2022-11-17T07:02:39.056Z,2
2022-11-17T07:08:22.285Z,1.7
2022-11-17T07:14:05.636Z,2.8
2022-11-17T07:19:49.054Z,2.3
2022-11-17T07:25:32.253Z,1.6
2022-11-17T07:31:16.502Z,2.3
2022-11-17T07:36:59.666Z,1.6
2022-11-17T07:42:42.919Z,0.9
2022-11-17T07:48:25.941Z,1
2022-11-17T07:54:10.324Z,2.7
2022-11-17T07:59:53.709Z,2.1
2022-11-17T08:05:45.575Z,1.8
2022-11-17T08:11:30.048Z,2.1
2022-11-17T08:17:13.116Z,1.9
2022-11-17T08:22:56.550Z,2.4
2022-11-17T08:28:41.482Z,3
2022-11-17T08:34:24.663Z,0.9
2022-11-17T08:40:08.392Z,1.3
2022-11-17T08:45:51.901Z,1.7
2022-11-17T08:51:34.983Z,3.4
2022-11-17T08:57:18.580Z,1
2022-11-17T09:03:01.788Z,1.7
2022-11-17T09:08:50.223Z,1.6
2022-11-17T09:14:34.426Z,1.4
2022-11-17T09:20:18.179Z,1.5
2022-11-17T09:26:01.518Z,1.6
2022-11-17T09:31:45.052Z,2.4
2022-11-17T09:37:28.114Z,2.7
2022-11-17T09:43:18.329Z,1.8
2022-11-17T09:49:05.515Z,2.3
2022-11-17T09:54:52.220Z,2.7
2022-11-17T10:00:36.045Z,1.1
2022-11-17T10:06:22.699Z,1.8
2022-11-17T10:12:13.305Z,2.9
2022-11-17T10:17:56.789Z,0.9
2022-11-17T10:23:49.809Z,1.6
2022-11-17T10:29:32.994Z,1
2022-11-17T10:35:20.707Z,1.5
2022-11-17T10:41:06.118Z,1.8
2022-11-17T10:47:05.224Z,1.4
2022-11-17T10:52:48.578Z,1.6
2022-11-17T10:58:32.519Z,2.4
2022-11-17T11:04:26.778Z,1.5
2022-11-17T11:10:15.908Z,1.7
2022-11-17T11:15:59.081Z,4.8
2022-11-17T11:21:50.062Z,1.2
2022-11-17T11:27:37.924Z,1.6
2022-11-17T11:33:30.501Z,0.7
2022-11-17T11:39:16.470Z,1.4
2022-11-17T11:45:11.523Z,1.2
2022-11-17T11:50:59.715Z,1.4
2022-11-17T11:56:44.441Z,0.9
2022-11-17T12:02:33.986Z,1.2
2022-11-17T12:08:20.373Z,1.5
2022-11-17T12:14:05.645Z,1.3
2022-11-17T12:19:55.646Z,1.4
2022-11-17T12:25:50.557Z,1.5
2022-11-17T12:31:50.950Z,1.8
2022-11-17T12:37:34.131Z,2.5
2022-11-17T12:43:27.171Z,1.5
2022-11-17T12:49:15.606Z,1.6
2022-11-17T12:55:03.691Z,1.5
2022-11-17T13:00:53.988Z,1.8
2022-11-17T13:06:39.769Z,1
2022-11-17T13:12:24.018Z,2.9
2022-11-17T13:18:11.028Z,2.4
2022-11-17T13:23:55.139Z,2
2022-11-17T13:29:38.430Z,1.6
2022-11-17T13:35:26.330Z,1.4
2022-11-17T13:41:09.258Z,1.3
2022-11-17T13:46:53.079Z,1.5
2022-11-17T13:52:49.031Z,3.1
2022-11-17T13:58:37.046Z,1.6
2022-11-17T14:04:24.910Z,1.2
2022-11-17T14:10:28.249Z,2.6
2022-11-17T14:16:22.542Z,1.8
2022-11-17T14:22:07.358Z,1.3
2022-11-17T14:27:55.399Z,1.8
2022-11-17T14:33:38.785Z,1.3
2022-11-17T14:39:22.291Z,1.3
2022-11-17T14:45:05.697Z,0.8
2022-11-17T14:50:48.975Z,2
2022-11-17T14:56:32.059Z,1.8
2022-11-17T15:02:15.278Z,1.6
2022-11-17T15:07:58.506Z,2.2
2022-11-17T15:13:41.312Z,3.4
2022-11-17T15:19:24.644Z,1.8
2022-11-17T15:25:08.185Z,2.3
2022-11-17T15:30:51.046Z,1.2
2022-11-17T15:36:36.173Z,2.3
2022-11-17T15:42:19.146Z,1.5
2022-11-17T15:48:02.304Z,1.7
2022-11-17T15:53:46.707Z,1.7
2022-11-17T15:59:29.806Z,1.5
2022-11-17T16:05:13.505Z,2
2022-11-17T16:10:56.691Z,0.8
2022-11-17T16:16:40.720Z,2.5
2022-11-17T16:22:24.029Z,1.7
2022-11-17T16:28:07.417Z,1.4
2022-11-17T16:33:54.555Z,3.3
2022-11-17T16:39:37.636Z,1.9
2022-11-17T16:45:20.624Z,1.7
2022-11-17T16:51:08.755Z,1.5
2022-11-17T16:56:52.247Z,1.5
2022-11-17T17:02:35.486Z,2.1
2022-11-17T17:08:19.434Z,2.9
2022-11-17T17:14:03.155Z,2.6
2022-11-17T17:19:46.383Z,2.1
2022-11-17T17:25:29.458Z,3
2022-11-17T17:31:22.493Z,3
2022-11-17T17:37:05.918Z,2.6
2022-11-17T17:42:49.498Z,3.8
2022-11-17T17:48:32.721Z,2.7
2022-11-17T17:54:17.118Z,3.1
2022-11-17T18:00:00.131Z,3.6
2022-11-17T18:05:43.326Z,3
2022-11-17T18:11:26.594Z,4.4
2022-11-17T18:17:09.556Z,3.5
2022-11-17T18:22:52.560Z,2.6
2022-11-17T18:28:35.705Z,2.8
2022-11-17T18:34:20.785Z,3.2
2022-11-17T18:40:03.786Z,5
2022-11-17T18:45:47.259Z,3.3
2022-11-17T18:51:31.353Z,4.1
2022-11-17T18:57:14.128Z,3.5
2022-11-17T19:02:57.253Z,3.8
2022-11-17T19:08:40.583Z,2.9
2022-11-17T19:14:24.512Z,2.7
2022-11-17T19:20:07.927Z,4.3
2022-11-17T19:25:50.978Z,3.5
2022-11-17T19:31:34.250Z,4.3
2022-11-17T19:37:17.315Z,3.5
2022-11-17T19:43:00.165Z,3
2022-11-17T19:48:43.566Z,2.6
2022-11-17T19:54:27.603Z,2.8
2022-11-17T20:00:11.912Z,5.1
2022-11-17T20:05:54.733Z,4.6
2022-11-17T20:11:38.178Z,2.8
2022-11-17T20:17:20.970Z,2.4
2022-11-17T20:23:03.970Z,3.6
2022-11-17T20:28:47.346Z,3.1
2022-11-17T20:34:30.401Z,2.7
2022-11-17T20:40:14.331Z,4
2022-11-17T20:45:59.425Z,4.2
2022-11-17T20:51:42.594Z,3.9
2022-11-17T20:57:26.938Z,4.7
2022-11-17T21:03:09.991Z,5.1
2022-11-17T21:08:52.986Z,5
2022-11-17T21:14:36.147Z,5.3
2022-11-17T21:20:19.470Z,5.9
2022-11-17T21:26:04.926Z,5.4
2022-11-17T21:31:48.050Z,3.6
2022-11-17T21:37:30.856Z,6.3
2022-11-17T21:43:13.915Z,7.8
2022-11-17T21:48:57.676Z,4.4
2022-11-17T21:54:40.806Z,6.5
2022-11-17T22:00:25.282Z,6.1
2022-11-17T22:06:14.123Z,5.3
2022-11-17T22:11:58.022Z,5.7
2022-11-17T22:17:41.242Z,5.6
2022-11-17T22:23:24.413Z,6.2
2022-11-17T22:29:08.284Z,6.9
2022-11-17T22:34:51.729Z,5.6
2022-11-17T22:40:34.979Z,4.2
2022-11-17T22:46:18.038Z,4.3
2022-11-17T22:52:01.366Z,4.7
2022-11-17T22:57:44.144Z,6.1
2022-11-17T23:03:27.322Z,5.2
2022-11-17T23:09:11.729Z,4
2022-11-17T23:14:54.875Z,4.8
2022-11-17T23:20:38.466Z,4.3
2022-11-17T23:26:21.788Z,4.8
2022-11-17T23:32:06.231Z,3.9
2022-11-17T23:37:49.429Z,6.4
2022-11-17T23:43:32.686Z,3.7
2022-11-17T23:49:16.678Z,4.5
2022-11-17T23:55:00.099Z,4.5
